Aspinwall, PA

6:11 AM EST on November 28, 2014 (GMT -0500)
O'Hara Township | Change Station
CLOSE
Current Station
Personal Weather Station
Location: Pittsburgh, PA
Elevation: 732 ft
Nearby Weather Stations

Elev 732 ft 40.49 °N, 79.89 °W | Updated 5 minutes ago

Snow
Snow
28.0 °F
Feels Like 28 °F
N
2.7
Wind Variable Wind from WSW

Today
High -- | Low -- °F
--% Chance of Precip.
Yesterday
High -- | Low -- °F
Precip. -- in
7:20 AM 4:54 PM
Waxing Crescent, 39% visible
Pressure 30.32 in
Visibility 5.0 miles
Clouds Scattered Clouds 1000 ft
Mostly Cloudy 1500 ft
Overcast 3400 ft
Windchill 28 °F
Dew Point 24 °F
Humidity 85%
Rainfall 0.00 in
Snow Depth Not available.
UV 0 out of 12
Pollen .10 out of 12
Air Quality Not available.
Flu Activity Not available.
METAR KAGC 281053Z 00000KT 5SM -SN BR SCT010 BKN015 OVC034 M04/M06 A3025 RMK AO2 SLP265 P0000 T10391061

More Conditions Fewer Conditions

Pressure 30.32 in
Visibility 5.0 miles
Clouds Scattered Clouds 1000 ft
Mostly Cloudy 1500 ft
Overcast 3400 ft
Windchill 28 °F
Dew Point 24 °F
Humidity 85%
Rainfall 0.00 in
Snow Depth Not available.
UV 0 out of 12
Pollen .10 out of 12
Air Quality Not available.
Flu Activity Not available.
METAR KAGC 281053Z 00000KT 5SM -SN BR SCT010 BKN015 OVC034 M04/M06 A3025 RMK AO2 SLP265 P0000 T10391061

More Conditions Fewer Conditions

10-Day Weather Forecast

Almanac

Astronomy

Nov. 28, 2014 Rise Set
Actual Time
Civil Twilight
Nautical Twilight
Astronomical Twilight
Moon
Length of Visible Light
Length of Day
Tomorrow will be .
, % of the Moon is Illuminated

Today's Extremes

State Highs State Lows

Community

WunderPhotos

Upload Photos

1,774,192 photos uploaded!

WunderBlogs® & News

Nearby

Air Quality

  Air Quality AQ Index Pollutant
Not available.

Snow Depth

Station Depth Elevation

Earthquake Activity

City Distance Mag. Time & Date
Minimum magnitude displayed is 2.5.

Coastal Water Temperatures

Place Temperature

Nearby Weather Stations